YYG weather

Charlottetown Airport
Charlottetown, Prince Edward Island, Canada

Public forecast

Using degrees Celsius for public forecast. Weather courtesy of forecast.io.

Current aviation weather report (METAR) for Charlottetown Airport

Retrieved 2019/10/20 22:00 UTC (28 minutes ago):

CYYG 202200Z 26003KT 15SM FEW120 FEW260 08/04 A3004 RMK AC1CI1 AC TR CI TR SLP177

Aviation forecast (TAF) for Charlottetown Airport

Retrieved 2019/10/20 18:45 UTC (4 hours ago):

TAF CYYG 201742Z 2018/2106 31010KT P6SM SCT030 BECMG 2021/2023 29005KT BECMG 2100/2102 21005KT RMK NXT FCST BY 210000Z